sensor_id;sensor_type;location;lat;lon;timestamp;P1;durP1;ratioP1;P2;durP2;ratioP2
12910;SDS011;6523;49.758;6.120;2022-09-03T00:00:55;3.77;;;1.80;;
12910;SDS011;6523;49.758;6.120;2022-09-03T00:03:26;2.13;;;1.70;;
12910;SDS011;6523;49.758;6.120;2022-09-03T00:06:22;1.70;;;1.50;;
12910;SDS011;6523;49.758;6.120;2022-09-03T00:09:02;1.73;;;1.63;;
12910;SDS011;6523;49.758;6.120;2022-09-03T00:14:13;1.87;;;1.77;;
12910;SDS011;6523;49.758;6.120;2022-09-03T00:16:45;1.90;;;1.80;;
12910;SDS011;6523;49.758;6.120;2022-09-03T00:19:19;2.73;;;2.00;;
12910;SDS011;6523;49.758;6.120;2022-09-03T00:21:56;1.90;;;1.80;;
12910;SDS011;6523;49.758;6.120;2022-09-03T00:24:27;2.40;;;1.57;;
12910;SDS011;6523;49.758;6.120;2022-09-03T00:26:59;1.60;;;1.50;;
12910;SDS011;6523;49.758;6.120;2022-09-03T00:29:49;2.27;;;1.50;;
12910;SDS011;6523;49.758;6.120;2022-09-03T00:32:18;2.40;;;1.70;;
12910;SDS011;6523;49.758;6.120;2022-09-03T00:34:51;2.27;;;2.00;;
12910;SDS011;6523;49.758;6.120;2022-09-03T00:37:26;3.23;;;2.13;;
12910;SDS011;6523;49.758;6.120;2022-09-03T00:39:53;4.70;;;1.83;;
12910;SDS011;6523;49.758;6.120;2022-09-03T00:45:36;2.90;;;1.87;;
12910;SDS011;6523;49.758;6.120;2022-09-03T00:48:29;1.70;;;1.60;;
12910;SDS011;6523;49.758;6.120;2022-09-03T01:07:12;2.37;;;1.70;;
12910;SDS011;6523;49.758;6.120;2022-09-03T01:12:28;2.03;;;1.90;;
12910;SDS011;6523;49.758;6.120;2022-09-03T01:17:41;2.07;;;1.60;;
12910;SDS011;6523;49.758;6.120;2022-09-03T01:20:21;1.70;;;1.60;;
12910;SDS011;6523;49.758;6.120;2022-09-03T01:28:14;2.13;;;1.80;;
12910;SDS011;6523;49.758;6.120;2022-09-03T01:30:56;2.47;;;2.27;;
12910;SDS011;6523;49.758;6.120;2022-09-03T01:34:19;1.93;;;1.83;;
12910;SDS011;6523;49.758;6.120;2022-09-03T01:39:07;1.73;;;1.63;;
12910;SDS011;6523;49.758;6.120;2022-09-03T01:49:53;1.60;;;1.50;;
12910;SDS011;6523;49.758;6.120;2022-09-03T01:59:00;2.23;;;2.00;;
12910;SDS011;6523;49.758;6.120;2022-09-03T02:01:06;2.57;;;1.90;;
12910;SDS011;6523;49.758;6.120;2022-09-03T02:03:39;1.73;;;1.63;;
12910;SDS011;6523;49.758;6.120;2022-09-03T02:06:09;2.33;;;1.77;;
12910;SDS011;6523;49.758;6.120;2022-09-03T02:08:36;1.97;;;1.83;;
12910;SDS011;6523;49.758;6.120;2022-09-03T02:11:03;2.30;;;2.00;;
12910;SDS011;6523;49.758;6.120;2022-09-03T02:13:43;2.13;;;2.00;;
12910;SDS011;6523;49.758;6.120;2022-09-03T02:16:17;2.03;;;1.93;;
12910;SDS011;6523;49.758;6.120;2022-09-03T02:18:58;1.90;;;1.80;;
12910;SDS011;6523;49.758;6.120;2022-09-03T02:21:33;3.80;;;2.10;;
12910;SDS011;6523;49.758;6.120;2022-09-03T02:24:02;2.83;;;1.80;;
12910;SDS011;6523;49.758;6.120;2022-09-03T02:26:29;3.30;;;1.90;;
12910;SDS011;6523;49.758;6.120;2022-09-03T02:28:54;2.20;;;1.80;;
12910;SDS011;6523;49.758;6.120;2022-09-03T02:31:21;2.10;;;1.90;;
12910;SDS011;6523;49.758;6.120;2022-09-03T02:33:48;2.47;;;2.00;;
12910;SDS011;6523;49.758;6.120;2022-09-03T02:36:16;1.90;;;1.70;;
12910;SDS011;6523;49.758;6.120;2022-09-03T02:38:45;2.20;;;2.00;;
12910;SDS011;6523;49.758;6.120;2022-09-03T02:41:11;3.60;;;2.00;;
12910;SDS011;6523;49.758;6.120;2022-09-03T02:46:40;2.80;;;1.90;;
12910;SDS011;6523;49.758;6.120;2022-09-03T02:49:10;2.27;;;1.93;;
12910;SDS011;6523;49.758;6.120;2022-09-03T02:51:38;1.93;;;1.83;;
12910;SDS011;6523;49.758;6.120;2022-09-03T02:54:06;3.37;;;1.80;;
12910;SDS011;6523;49.758;6.120;2022-09-03T02:56:33;2.47;;;2.03;;
12910;SDS011;6523;49.758;6.120;2022-09-03T02:58:59;2.10;;;2.00;;
12910;SDS011;6523;49.758;6.120;2022-09-03T03:01:27;2.10;;;1.90;;
12910;SDS011;6523;49.758;6.120;2022-09-03T03:03:52;2.30;;;2.20;;
12910;SDS011;6523;49.758;6.120;2022-09-03T03:06:18;1.63;;;1.53;;
12910;SDS011;6523;49.758;6.120;2022-09-03T03:08:44;2.30;;;2.10;;
12910;SDS011;6523;49.758;6.120;2022-09-03T03:11:11;2.33;;;2.13;;
12910;SDS011;6523;49.758;6.120;2022-09-03T03:13:37;2.40;;;2.17;;
12910;SDS011;6523;49.758;6.120;2022-09-03T03:16:03;2.30;;;2.10;;
12910;SDS011;6523;49.758;6.120;2022-09-03T03:18:33;3.03;;;2.30;;
12910;SDS011;6523;49.758;6.120;2022-09-03T03:21:09;2.80;;;1.87;;
12910;SDS011;6523;49.758;6.120;2022-09-03T03:23:36;2.70;;;2.10;;
12910;SDS011;6523;49.758;6.120;2022-09-03T03:26:03;2.53;;;1.90;;
12910;SDS011;6523;49.758;6.120;2022-09-03T03:28:30;2.57;;;1.87;;
12910;SDS011;6523;49.758;6.120;2022-09-03T03:31:11;2.87;;;2.20;;
12910;SDS011;6523;49.758;6.120;2022-09-03T03:33:38;2.43;;;2.07;;
12910;SDS011;6523;49.758;6.120;2022-09-03T03:36:05;2.30;;;2.10;;
12910;SDS011;6523;49.758;6.120;2022-09-03T03:38:33;3.97;;;2.10;;
12910;SDS011;6523;49.758;6.120;2022-09-03T03:40:59;2.20;;;2.00;;
12910;SDS011;6523;49.758;6.120;2022-09-03T03:43:30;3.33;;;2.00;;
12910;SDS011;6523;49.758;6.120;2022-09-03T03:45:56;2.73;;;2.10;;
12910;SDS011;6523;49.758;6.120;2022-09-03T03:48:23;3.07;;;2.30;;
12910;SDS011;6523;49.758;6.120;2022-09-03T03:50:49;2.60;;;2.40;;
12910;SDS011;6523;49.758;6.120;2022-09-03T03:53:15;3.20;;;2.30;;
12910;SDS011;6523;49.758;6.120;2022-09-03T03:55:41;2.73;;;2.50;;
12910;SDS011;6523;49.758;6.120;2022-09-03T03:58:06;2.47;;;2.27;;
12910;SDS011;6523;49.758;6.120;2022-09-03T04:00:32;4.50;;;2.40;;
12910;SDS011;6523;49.758;6.120;2022-09-03T04:03:01;3.40;;;2.10;;
12910;SDS011;6523;49.758;6.120;2022-09-03T04:05:30;2.50;;;2.30;;
12910;SDS011;6523;49.758;6.120;2022-09-03T04:07:59;4.20;;;2.53;;
12910;SDS011;6523;49.758;6.120;2022-09-03T04:10:26;10.27;;;2.80;;
12910;SDS011;6523;49.758;6.120;2022-09-03T04:12:55;3.00;;;2.10;;
12910;SDS011;6523;49.758;6.120;2022-09-03T04:15:20;2.13;;;2.00;;
12910;SDS011;6523;49.758;6.120;2022-09-03T04:17:46;3.37;;;2.23;;
12910;SDS011;6523;49.758;6.120;2022-09-03T04:20:11;2.83;;;2.07;;
12910;SDS011;6523;49.758;6.120;2022-09-03T04:22:37;3.03;;;2.73;;
12910;SDS011;6523;49.758;6.120;2022-09-03T04:25:03;2.73;;;2.50;;
12910;SDS011;6523;49.758;6.120;2022-09-03T04:27:29;2.93;;;2.20;;
12910;SDS011;6523;49.758;6.120;2022-09-03T04:29:55;3.07;;;2.40;;
12910;SDS011;6523;49.758;6.120;2022-09-03T04:32:20;2.23;;;2.00;;
12910;SDS011;6523;49.758;6.120;2022-09-03T04:35:05;2.53;;;2.33;;
12910;SDS011;6523;49.758;6.120;2022-09-03T04:37:31;3.40;;;2.33;;
12910;SDS011;6523;49.758;6.120;2022-09-03T04:39:57;2.40;;;2.20;;
12910;SDS011;6523;49.758;6.120;2022-09-03T04:42:23;3.33;;;2.10;;
12910;SDS011;6523;49.758;6.120;2022-09-03T04:44:48;2.10;;;2.00;;
12910;SDS011;6523;49.758;6.120;2022-09-03T04:47:14;3.83;;;2.13;;
12910;SDS011;6523;49.758;6.120;2022-09-03T04:49:40;2.40;;;2.20;;
12910;SDS011;6523;49.758;6.120;2022-09-03T04:52:06;2.30;;;2.20;;
12910;SDS011;6523;49.758;6.120;2022-09-03T04:54:31;2.43;;;2.27;;
12910;SDS011;6523;49.758;6.120;2022-09-03T04:56:57;3.30;;;2.20;;
12910;SDS011;6523;49.758;6.120;2022-09-03T04:59:22;2.57;;;2.07;;
12910;SDS011;6523;49.758;6.120;2022-09-03T05:01:48;2.70;;;2.50;;
12910;SDS011;6523;49.758;6.120;2022-09-03T05:04:16;3.67;;;2.23;;
12910;SDS011;6523;49.758;6.120;2022-09-03T05:06:41;2.77;;;2.30;;
12910;SDS011;6523;49.758;6.120;2022-09-03T05:09:09;2.30;;;2.10;;
12910;SDS011;6523;49.758;6.120;2022-09-03T05:11:34;3.10;;;2.40;;
12910;SDS011;6523;49.758;6.120;2022-09-03T05:14:00;3.93;;;2.40;;
12910;SDS011;6523;49.758;6.120;2022-09-03T05:16:26;3.33;;;2.30;;
12910;SDS011;6523;49.758;6.120;2022-09-03T05:18:54;3.83;;;2.50;;
12910;SDS011;6523;49.758;6.120;2022-09-03T05:21:21;3.23;;;2.80;;
12910;SDS011;6523;49.758;6.120;2022-09-03T05:23:47;3.80;;;2.90;;
12910;SDS011;6523;49.758;6.120;2022-09-03T05:26:35;2.90;;;2.70;;
12910;SDS011;6523;49.758;6.120;2022-09-03T05:29:03;3.13;;;2.93;;
12910;SDS011;6523;49.758;6.120;2022-09-03T05:31:33;2.90;;;2.67;;
12910;SDS011;6523;49.758;6.120;2022-09-03T05:34:03;3.30;;;3.00;;
12910;SDS011;6523;49.758;6.120;2022-09-03T05:36:34;3.23;;;2.83;;
12910;SDS011;6523;49.758;6.120;2022-09-03T05:39:03;3.63;;;2.90;;
12910;SDS011;6523;49.758;6.120;2022-09-03T05:41:29;3.20;;;2.90;;
12910;SDS011;6523;49.758;6.120;2022-09-03T05:43:56;2.40;;;2.30;;
12910;SDS011;6523;49.758;6.120;2022-09-03T05:46:34;4.80;;;2.80;;
12910;SDS011;6523;49.758;6.120;2022-09-03T05:49:01;3.70;;;2.90;;
12910;SDS011;6523;49.758;6.120;2022-09-03T05:51:31;4.20;;;3.00;;
12910;SDS011;6523;49.758;6.120;2022-09-03T05:53:57;3.50;;;3.20;;
12910;SDS011;6523;49.758;6.120;2022-09-03T05:56:23;2.77;;;2.57;;
12910;SDS011;6523;49.758;6.120;2022-09-03T05:58:51;2.63;;;2.43;;
12910;SDS011;6523;49.758;6.120;2022-09-03T06:01:28;3.00;;;2.80;;
12910;SDS011;6523;49.758;6.120;2022-09-03T06:06:32;3.93;;;2.60;;
12910;SDS011;6523;49.758;6.120;2022-09-03T06:09:00;3.40;;;2.83;;
12910;SDS011;6523;49.758;6.120;2022-09-03T06:11:29;2.97;;;2.47;;
12910;SDS011;6523;49.758;6.120;2022-09-03T06:14:00;3.40;;;2.77;;
12910;SDS011;6523;49.758;6.120;2022-09-03T06:16:29;3.27;;;2.50;;
12910;SDS011;6523;49.758;6.120;2022-09-03T06:18:55;3.83;;;2.70;;
12910;SDS011;6523;49.758;6.120;2022-09-03T06:21:21;2.87;;;2.67;;
12910;SDS011;6523;49.758;6.120;2022-09-03T06:23:50;3.30;;;3.00;;
12910;SDS011;6523;49.758;6.120;2022-09-03T06:26:18;2.90;;;2.70;;
12910;SDS011;6523;49.758;6.120;2022-09-03T06:28:45;3.20;;;2.90;;
12910;SDS011;6523;49.758;6.120;2022-09-03T06:31:13;3.00;;;2.70;;
12910;SDS011;6523;49.758;6.120;2022-09-03T06:33:43;3.20;;;2.87;;
12910;SDS011;6523;49.758;6.120;2022-09-03T06:36:10;3.90;;;3.17;;
12910;SDS011;6523;49.758;6.120;2022-09-03T06:38:37;3.40;;;2.90;;
12910;SDS011;6523;49.758;6.120;2022-09-03T06:41:08;3.37;;;3.10;;
12910;SDS011;6523;49.758;6.120;2022-09-03T06:43:36;3.43;;;3.10;;
12910;SDS011;6523;49.758;6.120;2022-09-03T06:46:10;4.03;;;2.70;;
12910;SDS011;6523;49.758;6.120;2022-09-03T06:48:38;3.10;;;2.90;;
12910;SDS011;6523;49.758;6.120;2022-09-03T06:51:06;3.90;;;3.10;;
12910;SDS011;6523;49.758;6.120;2022-09-03T06:53:40;3.27;;;2.97;;
12910;SDS011;6523;49.758;6.120;2022-09-03T06:56:08;3.33;;;2.87;;
12910;SDS011;6523;49.758;6.120;2022-09-03T06:58:39;3.43;;;3.00;;
12910;SDS011;6523;49.758;6.120;2022-09-03T07:01:10;4.97;;;3.00;;
12910;SDS011;6523;49.758;6.120;2022-09-03T07:03:38;3.63;;;3.17;;
12910;SDS011;6523;49.758;6.120;2022-09-03T07:06:05;6.17;;;3.10;;
12910;SDS011;6523;49.758;6.120;2022-09-03T07:08:35;2.90;;;2.70;;
12910;SDS011;6523;49.758;6.120;2022-09-03T07:11:02;3.93;;;2.77;;
12910;SDS011;6523;49.758;6.120;2022-09-03T07:13:33;3.33;;;2.73;;
12910;SDS011;6523;49.758;6.120;2022-09-03T07:16:03;2.80;;;2.60;;
12910;SDS011;6523;49.758;6.120;2022-09-03T07:18:31;2.97;;;2.63;;
12910;SDS011;6523;49.758;6.120;2022-09-03T07:21:04;2.50;;;2.30;;
12910;SDS011;6523;49.758;6.120;2022-09-03T07:23:32;3.40;;;2.50;;
12910;SDS011;6523;49.758;6.120;2022-09-03T07:26:00;2.70;;;2.50;;
12910;SDS011;6523;49.758;6.120;2022-09-03T07:28:30;4.57;;;2.93;;
12910;SDS011;6523;49.758;6.120;2022-09-03T07:31:00;3.23;;;3.00;;
12910;SDS011;6523;49.758;6.120;2022-09-03T07:33:34;6.40;;;3.77;;
12910;SDS011;6523;49.758;6.120;2022-09-03T07:36:03;3.33;;;3.13;;
12910;SDS011;6523;49.758;6.120;2022-09-03T07:38:34;4.10;;;3.73;;
12910;SDS011;6523;49.758;6.120;2022-09-03T07:41:01;4.53;;;4.13;;
12910;SDS011;6523;49.758;6.120;2022-09-03T07:43:29;4.23;;;3.67;;
12910;SDS011;6523;49.758;6.120;2022-09-03T07:45:59;6.13;;;4.53;;
12910;SDS011;6523;49.758;6.120;2022-09-03T07:48:25;5.77;;;4.70;;
12910;SDS011;6523;49.758;6.120;2022-09-03T07:50:51;7.93;;;5.20;;
12910;SDS011;6523;49.758;6.120;2022-09-03T07:53:23;5.37;;;4.87;;
12910;SDS011;6523;49.758;6.120;2022-09-03T07:55:49;10.80;;;6.00;;
12910;SDS011;6523;49.758;6.120;2022-09-03T07:58:14;8.33;;;5.20;;
12910;SDS011;6523;49.758;6.120;2022-09-03T08:00:41;8.70;;;5.67;;
12910;SDS011;6523;49.758;6.120;2022-09-03T08:03:07;8.13;;;6.27;;
12910;SDS011;6523;49.758;6.120;2022-09-03T08:05:34;7.13;;;5.53;;
12910;SDS011;6523;49.758;6.120;2022-09-03T08:08:03;7.43;;;6.07;;
12910;SDS011;6523;49.758;6.120;2022-09-03T08:10:33;7.60;;;6.10;;
12910;SDS011;6523;49.758;6.120;2022-09-03T08:13:00;7.03;;;6.37;;
12910;SDS011;6523;49.758;6.120;2022-09-03T08:15:29;7.37;;;5.93;;
12910;SDS011;6523;49.758;6.120;2022-09-03T08:17:56;6.70;;;6.03;;
12910;SDS011;6523;49.758;6.120;2022-09-03T08:20:23;6.07;;;5.47;;
12910;SDS011;6523;49.758;6.120;2022-09-03T08:22:49;6.40;;;5.90;;
12910;SDS011;6523;49.758;6.120;2022-09-03T08:25:15;5.93;;;5.33;;
12910;SDS011;6523;49.758;6.120;2022-09-03T08:27:41;6.07;;;5.57;;
12910;SDS011;6523;49.758;6.120;2022-09-03T08:30:06;6.10;;;5.60;;
12910;SDS011;6523;49.758;6.120;2022-09-03T08:32:35;7.43;;;6.33;;
12910;SDS011;6523;49.758;6.120;2022-09-03T08:35:04;8.43;;;7.20;;
12910;SDS011;6523;49.758;6.120;2022-09-03T08:37:31;6.90;;;6.30;;
12910;SDS011;6523;49.758;6.120;2022-09-03T08:39:57;7.60;;;6.80;;
12910;SDS011;6523;49.758;6.120;2022-09-03T08:42:28;7.13;;;6.43;;
12910;SDS011;6523;49.758;6.120;2022-09-03T08:45:12;8.00;;;7.30;;
12910;SDS011;6523;49.758;6.120;2022-09-03T08:50:25;8.00;;;7.13;;
12910;SDS011;6523;49.758;6.120;2022-09-03T08:55:38;7.10;;;6.60;;
12910;SDS011;6523;49.758;6.120;2022-09-03T08:58:18;6.90;;;6.20;;
12910;SDS011;6523;49.758;6.120;2022-09-03T09:06:19;6.37;;;5.70;;
12910;SDS011;6523;49.758;6.120;2022-09-03T09:09:01;8.53;;;6.93;;
12910;SDS011;6523;49.758;6.120;2022-09-03T09:14:04;7.57;;;6.83;;
12910;SDS011;6523;49.758;6.120;2022-09-03T09:16:49;8.47;;;6.97;;
12910;SDS011;6523;49.758;6.120;2022-09-03T09:22:24;8.20;;;7.50;;
12910;SDS011;6523;49.758;6.120;2022-09-03T09:24:54;8.07;;;7.27;;
12910;SDS011;6523;49.758;6.120;2022-09-03T09:27:23;7.33;;;6.63;;
12910;SDS011;6523;49.758;6.120;2022-09-03T09:29:49;10.23;;;7.37;;
12910;SDS011;6523;49.758;6.120;2022-09-03T09:32:15;7.47;;;6.87;;
12910;SDS011;6523;49.758;6.120;2022-09-03T09:34:44;7.93;;;7.23;;
12910;SDS011;6523;49.758;6.120;2022-09-03T09:37:11;7.10;;;6.53;;
12910;SDS011;6523;49.758;6.120;2022-09-03T09:39:38;7.10;;;6.50;;
12910;SDS011;6523;49.758;6.120;2022-09-03T09:42:06;8.13;;;7.33;;
12910;SDS011;6523;49.758;6.120;2022-09-03T09:44:34;8.03;;;7.23;;
12910;SDS011;6523;49.758;6.120;2022-09-03T09:47:04;7.43;;;6.80;;
12910;SDS011;6523;49.758;6.120;2022-09-03T09:49:34;8.40;;;7.60;;
12910;SDS011;6523;49.758;6.120;2022-09-03T09:52:04;8.20;;;7.23;;
12910;SDS011;6523;49.758;6.120;2022-09-03T09:54:33;9.00;;;8.10;;
12910;SDS011;6523;49.758;6.120;2022-09-03T09:57:00;8.83;;;7.97;;
12910;SDS011;6523;49.758;6.120;2022-09-03T09:59:30;8.23;;;7.53;;
12910;SDS011;6523;49.758;6.120;2022-09-03T10:04:35;7.50;;;6.83;;
12910;SDS011;6523;49.758;6.120;2022-09-03T10:09:59;7.33;;;6.73;;
12910;SDS011;6523;49.758;6.120;2022-09-03T10:17:48;6.90;;;6.30;;
12910;SDS011;6523;49.758;6.120;2022-09-03T10:20:34;7.37;;;6.70;;
12910;SDS011;6523;49.758;6.120;2022-09-03T10:23:25;6.53;;;5.93;;
12910;SDS011;6523;49.758;6.120;2022-09-03T10:28:21;6.97;;;6.27;;
12910;SDS011;6523;49.758;6.120;2022-09-03T10:42:33;6.60;;;6.00;;
12910;SDS011;6523;49.758;6.120;2022-09-03T10:48:02;7.70;;;6.87;;
12910;SDS011;6523;49.758;6.120;2022-09-03T10:50:44;6.70;;;6.10;;
12910;SDS011;6523;49.758;6.120;2022-09-03T10:59:31;6.80;;;6.10;;
12910;SDS011;6523;49.758;6.120;2022-09-03T11:04:59;6.70;;;6.00;;
12910;SDS011;6523;49.758;6.120;2022-09-03T11:10:18;5.73;;;5.23;;
12910;SDS011;6523;49.758;6.120;2022-09-03T11:13:11;6.10;;;5.60;;
12910;SDS011;6523;49.758;6.120;2022-09-03T11:15:59;5.63;;;5.13;;
12910;SDS011;6523;49.758;6.120;2022-09-03T11:21:26;5.27;;;4.77;;
12910;SDS011;6523;49.758;6.120;2022-09-03T11:24:04;5.10;;;4.63;;
12910;SDS011;6523;49.758;6.120;2022-09-03T11:27:00;5.93;;;5.43;;
12910;SDS011;6523;49.758;6.120;2022-09-03T11:29:47;5.63;;;5.20;;
12910;SDS011;6523;49.758;6.120;2022-09-03T11:35:24;5.63;;;5.13;;
12910;SDS011;6523;49.758;6.120;2022-09-03T11:37:58;5.00;;;4.60;;
12910;SDS011;6523;49.758;6.120;2022-09-03T11:41:10;4.93;;;4.53;;
12910;SDS011;6523;49.758;6.120;2022-09-03T11:45:48;4.13;;;3.83;;
12910;SDS011;6523;49.758;6.120;2022-09-03T11:48:39;4.70;;;4.30;;
12910;SDS011;6523;49.758;6.120;2022-09-03T11:51:17;4.10;;;3.80;;
12910;SDS011;6523;49.758;6.120;2022-09-03T11:54:04;3.93;;;3.63;;
12910;SDS011;6523;49.758;6.120;2022-09-03T11:56:44;4.27;;;3.97;;
12910;SDS011;6523;49.758;6.120;2022-09-03T11:59:23;5.07;;;4.27;;
12910;SDS011;6523;49.758;6.120;2022-09-03T12:01:57;4.73;;;3.40;;
12910;SDS011;6523;49.758;6.120;2022-09-03T12:07:37;4.10;;;3.70;;
12910;SDS011;6523;49.758;6.120;2022-09-03T12:10:33;3.77;;;3.47;;
12910;SDS011;6523;49.758;6.120;2022-09-03T12:18:38;3.73;;;3.37;;
12910;SDS011;6523;49.758;6.120;2022-09-03T12:21:06;3.90;;;3.60;;
12910;SDS011;6523;49.758;6.120;2022-09-03T12:26:20;3.87;;;3.57;;
12910;SDS011;6523;49.758;6.120;2022-09-03T12:28:58;3.70;;;3.40;;
12910;SDS011;6523;49.758;6.120;2022-09-03T12:31:28;3.90;;;3.53;;
12910;SDS011;6523;49.758;6.120;2022-09-03T12:34:02;3.63;;;3.40;;
12910;SDS011;6523;49.758;6.120;2022-09-03T12:39:16;2.80;;;2.60;;
12910;SDS011;6523;49.758;6.120;2022-09-03T12:44:18;8.17;;;3.53;;
12910;SDS011;6523;49.758;6.120;2022-09-03T12:46:58;3.20;;;2.70;;
12910;SDS011;6523;49.758;6.120;2022-09-03T12:49:39;9.90;;;4.33;;
12910;SDS011;6523;49.758;6.120;2022-09-03T12:54:56;2.93;;;2.33;;
12910;SDS011;6523;49.758;6.120;2022-09-03T13:00:41;2.23;;;1.53;;
12910;SDS011;6523;49.758;6.120;2022-09-03T13:03:11;3.77;;;1.70;;
12910;SDS011;6523;49.758;6.120;2022-09-03T13:05:51;4.43;;;1.53;;
12910;SDS011;6523;49.758;6.120;2022-09-03T13:08:22;2.67;;;1.73;;
12910;SDS011;6523;49.758;6.120;2022-09-03T13:10:52;2.33;;;1.10;;
12910;SDS011;6523;49.758;6.120;2022-09-03T13:13:27;3.03;;;1.53;;
12910;SDS011;6523;49.758;6.120;2022-09-03T13:16:05;1.40;;;1.30;;
12910;SDS011;6523;49.758;6.120;2022-09-03T13:19:02;1.87;;;1.00;;
12910;SDS011;6523;49.758;6.120;2022-09-03T13:21:38;2.20;;;1.30;;
12910;SDS011;6523;49.758;6.120;2022-09-03T13:34:53;1.63;;;1.53;;
12910;SDS011;6523;49.758;6.120;2022-09-03T13:37:26;2.93;;;1.67;;
12910;SDS011;6523;49.758;6.120;2022-09-03T13:40:02;2.20;;;1.67;;
12910;SDS011;6523;49.758;6.120;2022-09-03T13:42:41;2.00;;;1.47;;
12910;SDS011;6523;49.758;6.120;2022-09-03T13:45:21;1.83;;;1.60;;
12910;SDS011;6523;49.758;6.120;2022-09-03T13:57:03;2.90;;;2.30;;
12910;SDS011;6523;49.758;6.120;2022-09-03T14:02:09;3.00;;;2.27;;
12910;SDS011;6523;49.758;6.120;2022-09-03T14:04:54;3.20;;;2.17;;
12910;SDS011;6523;49.758;6.120;2022-09-03T14:13:30;2.70;;;2.50;;
12910;SDS011;6523;49.758;6.120;2022-09-03T14:16:24;2.57;;;2.37;;
12910;SDS011;6523;49.758;6.120;2022-09-03T14:22:15;2.00;;;1.87;;
12910;SDS011;6523;49.758;6.120;2022-09-03T14:24:56;2.33;;;2.07;;
12910;SDS011;6523;49.758;6.120;2022-09-03T14:27:29;3.07;;;2.10;;
12910;SDS011;6523;49.758;6.120;2022-09-03T14:30:03;2.40;;;2.20;;
12910;SDS011;6523;49.758;6.120;2022-09-03T14:35:28;1.83;;;1.73;;
12910;SDS011;6523;49.758;6.120;2022-09-03T14:40:46;1.77;;;1.67;;
12910;SDS011;6523;49.758;6.120;2022-09-03T14:48:57;1.20;;;1.10;;
12910;SDS011;6523;49.758;6.120;2022-09-03T14:51:50;1.20;;;1.10;;
12910;SDS011;6523;49.758;6.120;2022-09-03T14:57:49;1.40;;;1.20;;
12910;SDS011;6523;49.758;6.120;2022-09-03T15:06:06;1.20;;;1.10;;
12910;SDS011;6523;49.758;6.120;2022-09-03T15:11:25;1.40;;;1.30;;
12910;SDS011;6523;49.758;6.120;2022-09-03T15:14:12;1.33;;;1.23;;
12910;SDS011;6523;49.758;6.120;2022-09-03T15:22:46;0.90;;;0.90;;
12910;SDS011;6523;49.758;6.120;2022-09-03T15:36:26;1.10;;;1.00;;
12910;SDS011;6523;49.758;6.120;2022-09-03T15:39:05;2.30;;;1.10;;
12910;SDS011;6523;49.758;6.120;2022-09-03T15:44:14;1.70;;;1.17;;
12910;SDS011;6523;49.758;6.120;2022-09-03T15:52:36;1.50;;;1.40;;
12910;SDS011;6523;49.758;6.120;2022-09-03T16:00:50;1.70;;;1.60;;
12910;SDS011;6523;49.758;6.120;2022-09-03T16:03:32;1.53;;;1.43;;
12910;SDS011;6523;49.758;6.120;2022-09-03T16:06:00;1.60;;;1.50;;
12910;SDS011;6523;49.758;6.120;2022-09-03T16:19:13;1.97;;;1.50;;
12910;SDS011;6523;49.758;6.120;2022-09-03T16:21:45;1.93;;;1.47;;
12910;SDS011;6523;49.758;6.120;2022-09-03T16:24:22;1.50;;;1.40;;
12910;SDS011;6523;49.758;6.120;2022-09-03T16:27:10;1.60;;;1.50;;
12910;SDS011;6523;49.758;6.120;2022-09-03T16:29:55;2.97;;;1.90;;
12910;SDS011;6523;49.758;6.120;2022-09-03T16:33:12;1.70;;;1.60;;
12910;SDS011;6523;49.758;6.120;2022-09-03T16:41:28;1.70;;;1.60;;
12910;SDS011;6523;49.758;6.120;2022-09-03T16:44:02;1.57;;;1.43;;
12910;SDS011;6523;49.758;6.120;2022-09-03T16:46:53;1.67;;;1.57;;
12910;SDS011;6523;49.758;6.120;2022-09-03T16:55:12;2.03;;;1.53;;
12910;SDS011;6523;49.758;6.120;2022-09-03T17:01:00;1.37;;;1.23;;
12910;SDS011;6523;49.758;6.120;2022-09-03T17:10:13;1.30;;;1.20;;
12910;SDS011;6523;49.758;6.120;2022-09-03T17:26:09;1.53;;;1.43;;
12910;SDS011;6523;49.758;6.120;2022-09-03T17:29:02;1.50;;;1.40;;
12910;SDS011;6523;49.758;6.120;2022-09-03T17:37:21;1.87;;;1.40;;
12910;SDS011;6523;49.758;6.120;2022-09-03T17:40:19;1.17;;;1.07;;
12910;SDS011;6523;49.758;6.120;2022-09-03T17:42:53;1.63;;;1.40;;
12910;SDS011;6523;49.758;6.120;2022-09-03T17:53:19;1.97;;;1.50;;
12910;SDS011;6523;49.758;6.120;2022-09-03T17:55:55;7.40;;;1.90;;
12910;SDS011;6523;49.758;6.120;2022-09-03T17:58:34;1.40;;;1.30;;
12910;SDS011;6523;49.758;6.120;2022-09-03T18:03:44;2.40;;;1.30;;
12910;SDS011;6523;49.758;6.120;2022-09-03T18:09:27;1.37;;;1.27;;
12910;SDS011;6523;49.758;6.120;2022-09-03T18:12:06;1.53;;;0.93;;
12910;SDS011;6523;49.758;6.120;2022-09-03T18:14:55;1.73;;;1.30;;
12910;SDS011;6523;49.758;6.120;2022-09-03T18:17:33;1.10;;;1.00;;
12910;SDS011;6523;49.758;6.120;2022-09-03T18:20:06;2.40;;;1.33;;
12910;SDS011;6523;49.758;6.120;2022-09-03T18:25:53;2.13;;;1.40;;
12910;SDS011;6523;49.758;6.120;2022-09-03T18:29:11;1.00;;;0.90;;
12910;SDS011;6523;49.758;6.120;2022-09-03T18:32:12;0.90;;;0.90;;
12910;SDS011;6523;49.758;6.120;2022-09-03T18:34:56;3.00;;;1.23;;
12910;SDS011;6523;49.758;6.120;2022-09-03T18:37:41;3.50;;;1.60;;
12910;SDS011;6523;49.758;6.120;2022-09-03T18:40:27;1.80;;;1.20;;
12910;SDS011;6523;49.758;6.120;2022-09-03T18:46:29;1.20;;;1.10;;
12910;SDS011;6523;49.758;6.120;2022-09-03T18:49:26;2.07;;;1.27;;
12910;SDS011;6523;49.758;6.120;2022-09-03T18:52:27;1.73;;;1.23;;
12910;SDS011;6523;49.758;6.120;2022-09-03T18:58:38;1.10;;;1.00;;
12910;SDS011;6523;49.758;6.120;2022-09-03T19:01:40;1.53;;;1.10;;
12910;SDS011;6523;49.758;6.120;2022-09-03T19:07:55;1.43;;;1.33;;
12910;SDS011;6523;49.758;6.120;2022-09-03T19:11:00;1.60;;;1.40;;
12910;SDS011;6523;49.758;6.120;2022-09-03T19:14:03;2.33;;;1.50;;
12910;SDS011;6523;49.758;6.120;2022-09-03T19:17:04;2.93;;;1.40;;
12910;SDS011;6523;49.758;6.120;2022-09-03T19:20:04;3.57;;;1.60;;
12910;SDS011;6523;49.758;6.120;2022-09-03T19:22:53;3.17;;;1.30;;
12910;SDS011;6523;49.758;6.120;2022-09-03T19:25:38;2.03;;;1.83;;
12910;SDS011;6523;49.758;6.120;2022-09-03T19:31:23;1.97;;;1.40;;
12910;SDS011;6523;49.758;6.120;2022-09-03T19:34:14;2.20;;;1.47;;
12910;SDS011;6523;49.758;6.120;2022-09-03T19:37:17;1.77;;;1.60;;
12910;SDS011;6523;49.758;6.120;2022-09-03T19:40:23;2.43;;;1.60;;
12910;SDS011;6523;49.758;6.120;2022-09-03T19:46:24;1.60;;;1.13;;
12910;SDS011;6523;49.758;6.120;2022-09-03T19:55:47;3.63;;;1.60;;
12910;SDS011;6523;49.758;6.120;2022-09-03T19:58:37;1.33;;;1.17;;
12910;SDS011;6523;49.758;6.120;2022-09-03T20:01:28;1.93;;;1.37;;
12910;SDS011;6523;49.758;6.120;2022-09-03T20:04:17;2.07;;;1.40;;
12910;SDS011;6523;49.758;6.120;2022-09-03T20:07:04;1.53;;;1.30;;
12910;SDS011;6523;49.758;6.120;2022-09-03T20:09:52;1.40;;;1.30;;
12910;SDS011;6523;49.758;6.120;2022-09-03T20:12:39;1.37;;;1.27;;
12910;SDS011;6523;49.758;6.120;2022-09-03T20:15:11;1.60;;;1.50;;
12910;SDS011;6523;49.758;6.120;2022-09-03T20:17:39;1.60;;;1.50;;
12910;SDS011;6523;49.758;6.120;2022-09-03T20:31:23;2.13;;;1.40;;
12910;SDS011;6523;49.758;6.120;2022-09-03T20:34:05;2.70;;;1.50;;
12910;SDS011;6523;49.758;6.120;2022-09-03T20:42:09;2.23;;;1.40;;
12910;SDS011;6523;49.758;6.120;2022-09-03T20:44:55;4.07;;;1.37;;
12910;SDS011;6523;49.758;6.120;2022-09-03T20:55:47;1.50;;;1.40;;
12910;SDS011;6523;49.758;6.120;2022-09-03T20:58:25;1.40;;;1.30;;
12910;SDS011;6523;49.758;6.120;2022-09-03T21:01:05;1.50;;;1.10;;
12910;SDS011;6523;49.758;6.120;2022-09-03T21:03:40;5.73;;;1.80;;
12910;SDS011;6523;49.758;6.120;2022-09-03T21:06:31;3.23;;;1.50;;
12910;SDS011;6523;49.758;6.120;2022-09-03T21:09:30;1.40;;;1.30;;
12910;SDS011;6523;49.758;6.120;2022-09-03T21:12:16;2.07;;;1.60;;
12910;SDS011;6523;49.758;6.120;2022-09-03T21:18:01;2.47;;;1.30;;
12910;SDS011;6523;49.758;6.120;2022-09-03T21:23:27;3.43;;;1.50;;
12910;SDS011;6523;49.758;6.120;2022-09-03T21:28:49;2.87;;;1.53;;
12910;SDS011;6523;49.758;6.120;2022-09-03T21:31:23;2.23;;;1.60;;
12910;SDS011;6523;49.758;6.120;2022-09-03T21:33:58;2.07;;;1.47;;
12910;SDS011;6523;49.758;6.120;2022-09-03T21:36:33;2.37;;;1.47;;